createdAt,value
2023-04-18T00:01:21.443Z,98658.22
2023-04-18T00:03:52.131Z,98666.19
2023-04-18T00:06:22.166Z,98657.19
2023-04-18T00:08:50.207Z,98658.63
2023-04-18T00:11:18.128Z,98655.59
2023-04-18T00:13:47.397Z,98661.22
2023-04-18T00:16:15.722Z,98656.53
2023-04-18T00:18:43.374Z,98661.94
2023-04-18T00:21:11.157Z,98656.53
2023-04-18T00:23:39.839Z,98655.56
2023-04-18T00:26:07.422Z,98652.06
2023-04-18T00:28:35.198Z,98660.97
2023-04-18T00:31:03.470Z,98658.56
2023-04-18T00:33:32.610Z,98661.34
2023-04-18T00:36:00.238Z,98656.06
2023-04-18T00:38:27.836Z,98658.53
2023-04-18T00:40:55.465Z,98655.63
2023-04-18T00:43:26.828Z,98657.25
2023-04-18T00:45:54.468Z,98648.63
2023-04-18T00:48:23.698Z,98659.63
2023-04-18T00:50:53.858Z,98653.72
2023-04-18T00:53:22.330Z,98651.31
2023-04-18T00:55:50.559Z,98655.16
2023-04-18T00:58:18.199Z,98658.25
2023-04-18T01:00:46.222Z,98654.25
2023-04-18T01:03:14.549Z,98656.22
2023-04-18T01:05:42.417Z,98661.41
2023-04-18T01:08:10.714Z,98655.66
2023-04-18T01:10:38.424Z,98653.78
2023-04-18T01:13:17.176Z,98653.44
2023-04-18T01:15:50.001Z,98661.13
2023-04-18T01:18:18.077Z,98657.28
2023-04-18T01:20:49.797Z,98664.78
2023-04-18T01:23:19.157Z,98659.66
2023-04-18T01:25:49.334Z,98663.56
2023-04-18T01:28:21.332Z,98661.06
2023-04-18T01:30:49.656Z,98665.34
2023-04-18T01:33:17.559Z,98671.72
2023-04-18T01:35:47.901Z,98671.38
2023-04-18T01:38:15.509Z,98670.50
2023-04-18T01:40:43.063Z,98671.81
2023-04-18T01:43:10.689Z,98673.63
2023-04-18T01:45:38.775Z,98673.94
2023-04-18T01:48:06.534Z,98667.69
2023-04-18T01:50:34.176Z,98672.53
2023-04-18T01:53:01.725Z,98669.88
2023-04-18T01:55:29.242Z,98672.47
2023-04-18T01:57:56.763Z,98667.94
2023-04-18T02:00:24.426Z,98671.22
2023-04-18T02:02:52.007Z,98673.50
2023-04-18T02:05:21.667Z,98673.22
2023-04-18T02:07:50.326Z,98665.66
2023-04-18T02:10:18.970Z,98679.44
2023-04-18T02:12:46.745Z,98669.47
2023-04-18T02:15:14.262Z,98673.91
2023-04-18T02:17:42.166Z,98677.94
2023-04-18T02:20:10.900Z,98670.13
2023-04-18T02:22:39.526Z,98672.41
2023-04-18T02:25:07.937Z,98676.16
2023-04-18T02:27:35.559Z,98673.44
2023-04-18T02:30:03.544Z,98674.50
2023-04-18T02:32:34.304Z,98671.06
2023-04-18T02:35:01.935Z,98677.56
2023-04-18T02:37:29.781Z,98670.63
2023-04-18T02:39:57.560Z,98679.41
2023-04-18T02:42:25.216Z,98682.25
2023-04-18T02:44:52.966Z,98679.72
2023-04-18T02:47:20.641Z,98680.03
2023-04-18T02:49:48.498Z,98680.56
2023-04-18T02:52:16.277Z,98676.47
2023-04-18T02:54:43.939Z,98675.72
2023-04-18T02:57:16.234Z,98683.56
2023-04-18T03:00:02.434Z,98686.38
2023-04-18T03:02:48.138Z,98690.84
2023-04-18T03:05:32.958Z,98686.97
2023-04-18T03:08:03.708Z,98690.63
2023-04-18T03:10:31.499Z,98691.41
2023-04-18T03:12:59.214Z,98686.88
2023-04-18T03:15:28.090Z,98689.72
2023-04-18T03:17:55.987Z,98693.63
2023-04-18T03:20:24.412Z,98690.53
2023-04-18T03:22:53.106Z,98695.91
2023-04-18T03:25:24.881Z,98696.00
2023-04-18T03:27:54.181Z,98698.41
2023-04-18T03:30:23.697Z,98701.41
2023-04-18T03:32:56.228Z,98703.34
2023-04-18T03:35:23.940Z,98701.22
2023-04-18T03:37:52.392Z,98695.22
2023-04-18T03:40:25.578Z,98697.13
2023-04-18T03:42:56.198Z,98698.44
2023-04-18T03:45:23.830Z,98698.56
2023-04-18T03:47:51.640Z,98689.91
2023-04-18T03:50:20.770Z,98706.09
2023-04-18T03:52:50.249Z,98702.78
2023-04-18T03:55:19.735Z,98711.75
2023-04-18T03:57:47.882Z,98707.66
2023-04-18T04:00:22.568Z,98709.28
2023-04-18T04:03:00.517Z,98708.16
2023-04-18T04:05:28.324Z,98706.22
2023-04-18T04:07:56.594Z,98703.94
2023-04-18T04:10:24.542Z,98715.03
2023-04-18T04:12:52.614Z,98708.31
2023-04-18T04:15:20.832Z,98721.59
2023-04-18T04:17:56.948Z,98714.13
2023-04-18T04:20:25.813Z,98717.13
2023-04-18T04:23:02.128Z,98719.41
2023-04-18T04:25:33.301Z,98720.69
2023-04-18T04:28:06.803Z,98720.22
2023-04-18T04:30:42.338Z,98719.25
2023-04-18T04:33:10.209Z,98719.88
2023-04-18T04:35:54.563Z,98725.00
2023-04-18T04:38:27.529Z,98721.78
2023-04-18T04:40:55.869Z,98727.22
2023-04-18T04:43:24.347Z,98732.56
2023-04-18T04:45:53.144Z,98730.75
2023-04-18T04:48:24.994Z,98725.31
2023-04-18T04:50:56.350Z,98732.03
2023-04-18T04:53:26.158Z,98734.25
2023-04-18T04:55:54.031Z,98743.16
2023-04-18T04:58:23.236Z,98735.25
2023-04-18T05:01:09.294Z,98738.84
2023-04-18T05:03:58.196Z,98741.53
2023-04-18T05:06:26.586Z,98739.59
2023-04-18T05:08:56.770Z,98746.66
2023-04-18T05:11:24.808Z,98740.06
2023-04-18T05:13:52.739Z,98751.47
2023-04-18T05:16:21.056Z,98752.38
2023-04-18T05:18:49.022Z,98744.84
2023-04-18T05:21:17.300Z,98757.22
2023-04-18T05:23:45.302Z,98752.41
2023-04-18T05:26:13.250Z,98751.41
2023-04-18T05:28:41.520Z,98751.16
2023-04-18T05:31:09.674Z,98757.56
2023-04-18T05:33:37.879Z,98759.81
2023-04-18T05:36:06.732Z,98759.88
2023-04-18T05:38:34.653Z,98776.28
2023-04-18T05:41:03.097Z,98763.56
2023-04-18T05:43:31.458Z,98768.94
2023-04-18T05:46:00.742Z,98763.09
2023-04-18T05:48:28.792Z,98771.47
2023-04-18T05:50:57.900Z,98771.38
2023-04-18T05:53:25.654Z,98769.16
2023-04-18T05:55:53.401Z,98773.00
2023-04-18T05:58:20.927Z,98773.28
2023-04-18T06:00:48.547Z,98775.72
2023-04-18T06:03:16.736Z,98781.44
2023-04-18T06:05:44.826Z,98773.22
2023-04-18T06:08:12.366Z,98781.88
2023-04-18T06:10:39.921Z,98786.72
2023-04-18T06:13:07.528Z,98784.69
2023-04-18T06:15:35.730Z,98783.56
2023-04-18T06:18:03.449Z,98784.66
2023-04-18T06:20:31.155Z,98787.00
2023-04-18T06:22:58.833Z,98797.34
2023-04-18T06:25:26.424Z,98793.13
2023-04-18T06:27:54.068Z,98794.44
2023-04-18T06:30:22.275Z,98789.97
2023-04-18T06:32:49.996Z,98795.72
2023-04-18T06:35:17.897Z,98797.00
2023-04-18T06:37:45.915Z,98791.44
2023-04-18T06:40:13.857Z,98791.78
2023-04-18T06:42:42.503Z,98789.03
2023-04-18T06:45:13.338Z,98784.97
2023-04-18T06:47:41.250Z,98800.47
2023-04-18T06:50:09.415Z,98798.09
2023-04-18T06:52:40.674Z,98797.09
2023-04-18T06:55:09.378Z,98800.03
2023-04-18T06:57:43.401Z,98797.69
2023-04-18T07:00:11.654Z,98798.78
2023-04-18T07:02:40.100Z,98802.47
2023-04-18T07:05:08.571Z,98808.50
2023-04-18T07:07:36.184Z,98812.88
2023-04-18T07:10:04.375Z,98806.66
2023-04-18T07:12:31.994Z,98804.44
2023-04-18T07:14:59.639Z,98812.56
2023-04-18T07:17:27.287Z,98809.09
2023-04-18T07:19:55.031Z,98809.66
2023-04-18T07:22:22.572Z,98799.94
2023-04-18T07:24:50.988Z,98812.50
2023-04-18T07:27:18.633Z,98803.34
2023-04-18T07:29:46.179Z,98820.31
2023-04-18T07:32:13.836Z,98813.88
2023-04-18T07:34:41.896Z,98815.16
2023-04-18T07:37:09.503Z,98815.47
2023-04-18T07:39:37.254Z,98822.84
2023-04-18T07:42:04.827Z,98826.78
2023-04-18T07:44:35.190Z,98831.81
2023-04-18T07:47:03.272Z,98832.50
2023-04-18T07:49:30.811Z,98836.16
2023-04-18T07:51:58.717Z,98826.19
2023-04-18T07:54:26.391Z,98830.53
2023-04-18T07:56:53.995Z,98840.63
2023-04-18T07:59:21.579Z,98838.06
2023-04-18T08:01:49.165Z,98838.63
2023-04-18T08:04:16.891Z,98842.78
2023-04-18T08:06:44.489Z,98846.00
2023-04-18T08:09:12.587Z,98846.28
2023-04-18T08:11:42.498Z,98842.44
2023-04-18T08:14:11.608Z,98857.50
2023-04-18T08:16:39.510Z,98848.97
2023-04-18T08:19:07.064Z,98856.41
2023-04-18T08:21:34.809Z,98860.97
2023-04-18T08:24:02.572Z,98846.03
2023-04-18T08:26:30.114Z,98857.47
2023-04-18T08:28:57.790Z,98860.63
2023-04-18T08:31:25.872Z,98855.38
2023-04-18T08:33:53.484Z,98854.72
2023-04-18T08:36:21.499Z,98860.84
2023-04-18T08:38:49.134Z,98866.56
2023-04-18T08:41:21.805Z,98855.31
2023-04-18T08:43:49.680Z,98862.34
2023-04-18T08:46:17.460Z,98870.41
2023-04-18T08:48:45.108Z,98868.63
2023-04-18T08:51:12.684Z,98874.66
2023-04-18T08:53:41.991Z,98865.31
2023-04-18T08:56:10.564Z,98868.16
2023-04-18T08:58:38.917Z,98871.47
2023-04-18T09:01:07.300Z,98872.53
2023-04-18T09:03:43.177Z,98866.97
2023-04-18T09:06:19.298Z,98870.47
2023-04-18T09:08:59.041Z,98866.78
2023-04-18T09:11:29.400Z,98872.91
2023-04-18T09:14:02.390Z,98872.59
2023-04-18T09:16:46.968Z,98879.38
2023-04-18T09:19:18.576Z,98871.53
2023-04-18T09:21:47.203Z,98879.41
2023-04-18T09:24:22.292Z,98875.91
2023-04-18T09:26:53.763Z,98879.94
2023-04-18T09:29:43.463Z,98877.47
2023-04-18T09:32:11.246Z,98879.50
2023-04-18T09:34:42.559Z,98877.72
2023-04-18T09:37:14.165Z,98885.53
2023-04-18T09:39:44.012Z,98887.53
2023-04-18T09:42:12.762Z,98877.69
2023-04-18T09:45:09.413Z,98887.97
2023-04-18T09:47:37.494Z,98876.88
2023-04-18T09:50:10.547Z,98879.00
2023-04-18T09:52:41.326Z,98873.38
2023-04-18T09:55:19.104Z,98871.75
2023-04-18T09:57:48.336Z,98870.25
2023-04-18T10:00:24.463Z,98870.25
2023-04-18T10:02:52.280Z,98877.63
2023-04-18T10:05:21.925Z,98870.59
2023-04-18T10:07:51.108Z,98868.25
2023-04-18T10:10:19.178Z,98878.38
2023-04-18T10:12:48.769Z,98878.09
2023-04-18T10:15:18.114Z,98873.81
2023-04-18T10:18:04.289Z,98883.19
2023-04-18T10:20:35.513Z,98877.72
2023-04-18T10:23:30.987Z,98871.00
2023-04-18T10:25:59.380Z,98875.47
2023-04-18T10:28:28.213Z,98874.34
2023-04-18T10:31:03.789Z,98880.72
2023-04-18T10:33:34.334Z,98882.97
2023-04-18T10:36:14.919Z,98868.78
2023-04-18T10:38:50.834Z,98877.38
2023-04-18T10:41:25.294Z,98882.22
2023-04-18T10:44:11.474Z,98876.22
2023-04-18T10:46:43.537Z,98874.53
2023-04-18T10:49:27.023Z,98862.66
2023-04-18T10:51:58.685Z,98871.09
2023-04-18T10:54:30.898Z,98867.41
2023-04-18T10:57:03.638Z,98862.28
2023-04-18T10:59:33.032Z,98865.91
2023-04-18T11:02:10.941Z,98869.31
2023-04-18T11:04:39.366Z,98864.66
2023-04-18T11:07:06.893Z,98863.25
2023-04-18T11:09:34.554Z,98852.84
2023-04-18T11:12:07.108Z,98855.59
2023-04-18T11:14:41.504Z,98856.75
2023-04-18T11:17:29.152Z,98864.59
2023-04-18T11:20:09.266Z,98859.09
2023-04-18T11:22:53.155Z,98854.41
2023-04-18T11:25:28.170Z,98865.72
2023-04-18T11:27:59.420Z,98872.47
2023-04-18T11:30:27.784Z,98875.47
2023-04-18T11:32:56.075Z,98876.34
2023-04-18T11:35:23.794Z,98876.50
2023-04-18T11:37:52.105Z,98881.44
2023-04-18T11:40:20.333Z,98882.88
2023-04-18T11:42:47.928Z,98869.38
2023-04-18T11:45:15.998Z,98867.09
2023-04-18T11:47:45.055Z,98869.38
2023-04-18T11:50:15.990Z,98861.03
2023-04-18T11:52:43.629Z,98864.84
2023-04-18T11:55:21.691Z,98867.44
2023-04-18T11:57:57.240Z,98873.47
2023-04-18T12:00:37.672Z,98863.06
2023-04-18T12:03:12.637Z,98855.56
2023-04-18T12:05:44.784Z,98862.63
2023-04-18T12:08:17.337Z,98867.88
2023-04-18T12:10:52.697Z,98860.78
2023-04-18T12:13:32.822Z,98857.88
2023-04-18T12:16:02.489Z,98859.00
2023-04-18T12:18:31.405Z,98864.06
2023-04-18T12:21:02.367Z,98866.91
2023-04-18T12:23:36.019Z,98862.72
2023-04-18T12:26:06.151Z,98865.38
2023-04-18T12:28:35.232Z,98864.75
2023-04-18T12:31:05.903Z,98861.03
2023-04-18T12:33:35.836Z,98855.66
2023-04-18T12:36:05.440Z,98857.84
2023-04-18T12:38:33.097Z,98852.75
2023-04-18T12:41:00.854Z,98852.31
2023-04-18T12:43:28.534Z,98851.22
2023-04-18T12:45:56.503Z,98853.63
2023-04-18T12:48:24.436Z,98845.56
2023-04-18T12:50:51.991Z,98848.38
2023-04-18T12:53:19.701Z,98847.34
2023-04-18T12:55:47.299Z,98846.66
2023-04-18T12:58:18.570Z,98847.19
2023-04-18T13:00:46.481Z,98841.03
2023-04-18T13:03:14.528Z,98847.47
2023-04-18T13:05:42.158Z,98844.34
2023-04-18T13:08:16.876Z,98846.41
2023-04-18T13:10:47.395Z,98847.22
2023-04-18T13:13:15.154Z,98841.66
2023-04-18T13:15:43.311Z,98848.84
2023-04-18T13:18:10.955Z,98842.78
2023-04-18T13:20:38.525Z,98845.31
2023-04-18T13:23:06.049Z,98849.13
2023-04-18T13:25:33.678Z,98854.91
2023-04-18T13:28:01.582Z,98850.19
2023-04-18T13:30:29.306Z,98853.75
2023-04-18T13:32:57.185Z,98858.63
2023-04-18T13:35:24.737Z,98858.53
2023-04-18T13:37:52.284Z,98856.84
2023-04-18T13:40:20.039Z,98852.75
2023-04-18T13:42:47.865Z,98862.00
2023-04-18T13:45:15.915Z,98854.34
2023-04-18T13:47:43.650Z,98861.59
2023-04-18T13:50:11.259Z,98854.84
2023-04-18T13:52:38.988Z,98851.78
2023-04-18T13:55:07.140Z,98861.50
2023-04-18T13:57:36.937Z,98852.88
2023-04-18T14:00:06.626Z,98845.13
2023-04-18T14:02:40.273Z,98854.47
2023-04-18T14:05:08.460Z,98847.63
2023-04-18T14:07:38.364Z,98837.91
2023-04-18T14:10:06.707Z,98846.50
2023-04-18T14:12:34.587Z,98846.84
2023-04-18T14:15:02.097Z,98838.19
2023-04-18T14:17:30.196Z,98838.25
2023-04-18T14:19:57.740Z,98837.97
2023-04-18T14:22:25.729Z,98838.91
2023-04-18T14:24:54.558Z,98839.00
2023-04-18T14:27:22.089Z,98844.16
2023-04-18T14:29:50.054Z,98844.28
2023-04-18T14:32:18.097Z,98850.63
2023-04-18T14:34:45.601Z,98849.28
2023-04-18T14:37:14.981Z,98834.59
2023-04-18T14:39:43.245Z,98840.56
2023-04-18T14:42:11.000Z,98845.91
2023-04-18T14:44:38.583Z,98846.69
2023-04-18T14:47:06.278Z,98845.13
2023-04-18T14:49:34.012Z,98850.09
2023-04-18T14:52:01.846Z,98846.38
2023-04-18T14:54:31.014Z,98852.00
2023-04-18T14:57:01.190Z,98847.22
2023-04-18T14:59:28.900Z,98846.44
2023-04-18T15:01:56.532Z,98857.63
2023-04-18T15:04:24.357Z,98857.41
2023-04-18T15:06:51.975Z,98849.16
2023-04-18T15:09:19.512Z,98850.41
2023-04-18T15:11:47.028Z,98845.81
2023-04-18T15:14:14.684Z,98845.16
2023-04-18T15:16:42.364Z,98839.69
2023-04-18T15:19:09.976Z,98836.97
2023-04-18T15:21:37.751Z,98834.19
2023-04-18T15:24:05.514Z,98838.06
2023-04-18T15:26:33.426Z,98835.97
2023-04-18T15:29:03.754Z,98840.66
2023-04-18T15:31:31.459Z,98835.69
2023-04-18T15:33:59.043Z,98831.66
2023-04-18T15:36:28.004Z,98834.91
2023-04-18T15:38:56.024Z,98830.25
2023-04-18T15:41:23.774Z,98835.38
2023-04-18T15:43:52.834Z,98828.28
2023-04-18T15:46:20.694Z,98833.41
2023-04-18T15:48:48.555Z,98830.75
2023-04-18T15:51:16.645Z,98833.69
2023-04-18T15:53:44.571Z,98839.53
2023-04-18T15:56:12.764Z,98839.19
2023-04-18T15:58:40.608Z,98837.19
2023-04-18T16:01:08.440Z,98833.91
2023-04-18T16:03:36.258Z,98835.25
2023-04-18T16:06:04.623Z,98849.97
2023-04-18T16:08:33.390Z,98852.25
2023-04-18T16:11:01.552Z,98849.03
2023-04-18T16:13:29.410Z,98846.41
2023-04-18T16:15:57.058Z,98855.44
2023-04-18T16:18:24.650Z,98849.66
2023-04-18T16:20:52.299Z,98851.09
2023-04-18T16:23:20.547Z,98850.00
2023-04-18T16:25:48.612Z,98854.00
2023-04-18T16:28:16.309Z,98853.50
2023-04-18T16:30:45.662Z,98866.94
2023-04-18T16:33:13.437Z,98862.78
2023-04-18T16:35:41.311Z,98856.19
2023-04-18T16:38:08.929Z,98859.06
2023-04-18T16:40:37.994Z,98859.94
2023-04-18T16:43:05.722Z,98862.59
2023-04-18T16:45:33.360Z,98858.50
2023-04-18T16:48:01.032Z,98858.00
2023-04-18T16:50:29.259Z,98859.59
2023-04-18T16:52:57.004Z,98861.38
2023-04-18T16:55:24.548Z,98862.84
2023-04-18T16:57:52.060Z,98858.34
2023-04-18T17:00:19.882Z,98868.56
2023-04-18T17:02:48.417Z,98864.91
2023-04-18T17:05:16.296Z,98871.41
2023-04-18T17:07:45.593Z,98872.31
2023-04-18T17:10:13.311Z,98871.00
2023-04-18T17:12:41.015Z,98866.13
2023-04-18T17:15:09.398Z,98865.59
2023-04-18T17:17:37.143Z,98867.38
2023-04-18T17:20:07.813Z,98867.31
2023-04-18T17:22:35.618Z,98873.75
2023-04-18T17:25:03.943Z,98879.22
2023-04-18T17:27:31.734Z,98876.72
2023-04-18T17:29:59.636Z,98879.47
2023-04-18T17:32:27.303Z,98888.06
2023-04-18T17:34:55.860Z,98887.34
2023-04-18T17:37:23.651Z,98885.75
2023-04-18T17:39:51.629Z,98888.81
2023-04-18T17:42:19.842Z,98892.81
2023-04-18T17:44:47.632Z,98896.78
2023-04-18T17:47:15.398Z,98894.91
2023-04-18T17:49:44.209Z,98902.94
2023-04-18T17:52:12.065Z,98895.25
2023-04-18T17:54:39.946Z,98899.25
2023-04-18T17:57:07.738Z,98903.72
2023-04-18T17:59:37.754Z,98910.94
2023-04-18T18:02:05.922Z,98907.19
2023-04-18T18:04:33.854Z,98909.31
2023-04-18T18:07:01.698Z,98912.81
2023-04-18T18:09:29.563Z,98912.94
2023-04-18T18:11:58.652Z,98913.22
2023-04-18T18:14:26.890Z,98924.56
2023-04-18T18:16:54.942Z,98920.91
2023-04-18T18:19:22.946Z,98920.13
2023-04-18T18:21:51.252Z,98925.47
2023-04-18T18:24:19.104Z,98919.88
2023-04-18T18:26:47.043Z,98926.94
2023-04-18T18:29:19.244Z,98931.00
2023-04-18T18:31:47.125Z,98926.63
2023-04-18T18:34:14.773Z,98932.88
2023-04-18T18:36:42.769Z,98934.81
2023-04-18T18:39:11.689Z,98931.44
2023-04-18T18:41:40.443Z,98931.50
2023-04-18T18:44:08.507Z,98929.25
2023-04-18T18:46:36.674Z,98922.16
2023-04-18T18:49:04.668Z,98924.09
2023-04-18T18:51:32.930Z,98927.69
2023-04-18T18:54:01.004Z,98926.47
2023-04-18T18:56:29.245Z,98928.47
2023-04-18T18:58:57.038Z,98916.94
2023-04-18T19:01:24.869Z,98926.13
2023-04-18T19:03:52.973Z,98923.47
2023-04-18T19:06:20.891Z,98933.25
2023-04-18T19:08:51.758Z,98936.63
2023-04-18T19:11:19.644Z,98931.88
2023-04-18T19:13:47.547Z,98934.59
2023-04-18T19:16:15.567Z,98940.31
2023-04-18T19:18:47.063Z,98940.25
2023-04-18T19:21:15.927Z,98946.56
2023-04-18T19:23:44.891Z,98941.16
2023-04-18T19:26:12.891Z,98949.13
2023-04-18T19:28:44.326Z,98950.38
2023-04-18T19:31:11.878Z,98952.78
2023-04-18T19:33:39.810Z,98951.31
2023-04-18T19:36:07.953Z,98960.88
2023-04-18T19:38:36.098Z,98960.19
2023-04-18T19:41:03.985Z,98963.72
2023-04-18T19:43:31.910Z,98976.53
2023-04-18T19:46:00.133Z,98972.00
2023-04-18T19:48:28.139Z,98976.81
2023-04-18T19:50:59.026Z,98971.56
2023-04-18T19:53:26.600Z,98973.88
2023-04-18T19:55:55.023Z,98974.16
2023-04-18T19:58:44.712Z,98972.69
2023-04-18T20:01:14.482Z,98984.53
2023-04-18T20:03:42.558Z,98977.31
2023-04-18T20:06:10.447Z,98976.19
2023-04-18T20:08:43.084Z,98980.03
2023-04-18T20:11:12.206Z,98978.81
2023-04-18T20:13:40.759Z,98985.50
2023-04-18T20:16:09.124Z,98990.91
2023-04-18T20:18:39.238Z,98985.75
2023-04-18T20:21:09.948Z,98987.50
2023-04-18T20:23:38.274Z,98991.75
2023-04-18T20:26:15.973Z,98986.19
2023-04-18T20:28:43.556Z,98988.41
2023-04-18T20:31:12.526Z,98990.88
2023-04-18T20:33:40.501Z,98988.63
2023-04-18T20:36:08.520Z,98990.75
2023-04-18T20:38:36.848Z,98984.09
2023-04-18T20:41:04.717Z,98986.38
2023-04-18T20:43:36.648Z,98985.91
2023-04-18T20:46:04.529Z,98985.94
2023-04-18T20:48:32.256Z,98973.59
2023-04-18T20:51:00.142Z,98981.13
2023-04-18T20:53:28.998Z,98976.44
2023-04-18T20:55:56.505Z,98980.09
2023-04-18T20:58:24.079Z,98978.34
2023-04-18T21:00:52.176Z,98983.25
2023-04-18T21:03:20.620Z,98980.63
2023-04-18T21:05:48.725Z,98978.63
2023-04-18T21:08:16.225Z,98983.06
2023-04-18T21:10:43.986Z,98981.72
2023-04-18T21:13:12.802Z,98978.00
2023-04-18T21:15:42.066Z,98979.34
2023-04-18T21:18:09.886Z,98982.75
2023-04-18T21:20:37.499Z,98981.13
2023-04-18T21:23:05.318Z,98978.00
2023-04-18T21:25:32.854Z,98980.19
2023-04-18T21:28:00.952Z,98987.19
2023-04-18T21:30:28.553Z,98975.84
2023-04-18T21:32:56.149Z,98971.72
2023-04-18T21:35:24.910Z,98978.59
2023-04-18T21:37:52.879Z,98975.66
2023-04-18T21:40:20.587Z,98966.34
2023-04-18T21:42:50.970Z,98967.59
2023-04-18T21:45:18.978Z,98973.91
2023-04-18T21:47:46.901Z,98970.28
2023-04-18T21:50:14.680Z,98972.28
2023-04-18T21:52:42.333Z,98972.59
2023-04-18T21:55:09.950Z,98967.75
2023-04-18T21:57:37.525Z,98968.81
2023-04-18T22:00:08.507Z,98962.63
2023-04-18T22:02:37.633Z,98969.94
2023-04-18T22:05:05.782Z,98969.28
2023-04-18T22:07:43.253Z,98972.94
2023-04-18T22:10:18.428Z,98965.09
2023-04-18T22:12:46.249Z,98962.50
2023-04-18T22:15:13.723Z,98965.16
2023-04-18T22:17:42.448Z,98961.44
2023-04-18T22:20:11.230Z,98960.91
2023-04-18T22:22:38.914Z,98955.38
2023-04-18T22:25:07.340Z,98958.41
2023-04-18T22:27:34.875Z,98962.22
2023-04-18T22:30:02.730Z,98955.41
2023-04-18T22:32:30.963Z,98957.97
2023-04-18T22:34:58.469Z,98957.97
2023-04-18T22:37:26.027Z,98951.91
2023-04-18T22:39:53.737Z,98951.06
2023-04-18T22:42:21.295Z,98952.06
2023-04-18T22:44:49.085Z,98952.06
2023-04-18T22:47:16.797Z,98946.44
2023-04-18T22:49:44.469Z,98937.66
2023-04-18T22:52:12.307Z,98938.28
2023-04-18T22:54:40.352Z,98936.09
2023-04-18T22:57:08.223Z,98934.84
2023-04-18T22:59:35.888Z,98931.44
2023-04-18T23:02:03.791Z,98924.09
2023-04-18T23:04:32.972Z,98924.88
2023-04-18T23:07:00.536Z,98924.16
2023-04-18T23:09:30.420Z,98917.75
2023-04-18T23:11:58.225Z,98928.06
2023-04-18T23:14:25.834Z,98918.91
2023-04-18T23:16:53.362Z,98913.75
2023-04-18T23:19:20.960Z,98920.56
2023-04-18T23:21:49.695Z,98915.81
2023-04-18T23:24:17.467Z,98911.50
2023-04-18T23:26:45.348Z,98903.56
2023-04-18T23:29:12.937Z,98897.63
2023-04-18T23:31:41.762Z,98895.56
2023-04-18T23:34:10.679Z,98887.84
2023-04-18T23:36:40.432Z,98890.84
2023-04-18T23:39:09.095Z,98896.31
2023-04-18T23:41:36.859Z,98886.50
2023-04-18T23:44:04.679Z,98877.69
2023-04-18T23:46:33.404Z,98883.44
2023-04-18T23:49:03.180Z,98875.16
2023-04-18T23:51:31.553Z,98874.56
2023-04-18T23:53:59.140Z,98871.47
2023-04-18T23:56:26.693Z,98872.63
2023-04-18T23:58:54.567Z,98869.03
